Time;durP1;ratioP1;P1;durP2;ratioP2;P2;SDS_P1;SDS_P2;PMS_P1;PMS_P2;Temp;Humidity;BMP_temperature;BMP_pressure;BME280_temperature;BME280_humidity;BME280_pressure;Samples;Min_cycle;Max_cycle;Signal;HPM_P1;HPM_P2
2021/10/26 00:00:23;;;;;;;2.83;1.90;;;23.00;42.50;;;;;;4973020;28;20393;-69
2021/10/26 00:02:49;;;;;;;2.57;1.87;;;23.00;42.50;;;;;;4973133;28;20482;-69
2021/10/26 00:05:15;;;;;;;3.22;2.00;;;23.00;42.40;;;;;;4973155;28;20738;-68
2021/10/26 00:07:40;;;;;;;2.30;1.90;;;23.00;42.70;;;;;;4973184;28;20932;-69
2021/10/26 00:10:07;;;;;;;2.38;1.90;;;22.90;42.40;;;;;;4972545;28;20397;-70
2021/10/26 00:12:33;;;;;;;3.00;2.00;;;22.90;42.50;;;;;;4972340;28;20480;-69
2021/10/26 00:14:59;;;;;;;2.60;1.90;;;22.90;42.50;;;;;;4972952;28;20482;-69
2021/10/26 00:17:26;;;;;;;2.20;1.85;;;22.90;42.30;;;;;;4972768;28;20455;-69
2021/10/26 00:19:52;;;;;;;2.70;2.20;;;22.90;42.40;;;;;;4972699;28;20392;-69
2021/10/26 00:22:17;;;;;;;2.30;1.90;;;22.90;42.40;;;;;;4972636;28;20520;-69
2021/10/26 00:24:43;;;;;;;2.92;2.03;;;22.90;42.30;;;;;;4972864;28;20489;-69
2021/10/26 00:27:10;;;;;;;2.97;2.17;;;22.90;42.40;;;;;;4972153;28;20764;-69
2021/10/26 00:29:36;;;;;;;2.78;2.10;;;22.90;42.30;;;;;;4955049;28;20456;-69
2021/10/26 00:32:03;;;;;;;2.42;2.00;;;22.90;42.30;;;;;;4954873;28;20408;-69
2021/10/26 00:34:28;;;;;;;2.40;2.00;;;22.90;42.30;;;;;;4955295;28;20815;-69
2021/10/26 00:36:54;;;;;;;3.47;2.10;;;22.90;42.30;;;;;;4972766;28;20428;-69
2021/10/26 00:39:20;;;;;;;2.47;1.92;;;22.80;42.30;;;;;;4972464;28;20392;-68
2021/10/26 00:41:46;;;;;;;3.10;2.20;;;22.90;42.30;;;;;;4972650;28;20566;-69
2021/10/26 00:44:12;;;;;;;2.22;2.00;;;22.90;42.30;;;;;;4972241;28;20388;-69
2021/10/26 00:46:38;;;;;;;2.30;1.80;;;22.80;42.20;;;;;;4972336;28;20416;-69
2021/10/26 00:49:09;;;;;;;2.70;2.15;;;22.80;42.20;;;;;;4972497;28;20455;-69
2021/10/26 00:51:35;;;;;;;2.53;1.88;;;22.90;42.20;;;;;;4972615;28;20392;-69
2021/10/26 00:54:07;;;;;;;2.22;1.67;;;22.80;42.20;;;;;;4955118;28;20907;-69
2021/10/26 00:56:33;;;;;;;2.50;1.85;;;22.80;42.20;;;;;;4972521;28;20403;-69
2021/10/26 00:58:59;;;;;;;2.40;1.80;;;22.80;42.20;;;;;;4972557;28;20392;-69
2021/10/26 01:01:25;;;;;;;2.17;1.70;;;22.80;42.30;;;;;;4972503;28;20493;-69
2021/10/26 01:03:51;;;;;;;2.60;1.90;;;22.80;42.30;;;;;;4972533;28;20400;-69
2021/10/26 01:06:17;;;;;;;2.67;1.80;;;22.80;42.20;;;;;;4971951;28;20443;-69
2021/10/26 01:08:45;;;;;;;2.17;1.73;;;22.80;42.20;;;;;;4972390;28;20416;-69
2021/10/26 01:11:11;;;;;;;2.65;1.90;;;22.80;42.20;;;;;;4972426;28;20939;-69
2021/10/26 01:13:37;;;;;;;2.25;1.65;;;22.80;42.20;;;;;;4971569;28;20496;-69
2021/10/26 01:16:04;;;;;;;2.80;1.90;;;22.80;42.20;;;;;;4972131;28;20399;-69
2021/10/26 01:18:30;;;;;;;2.10;1.67;;;22.70;42.20;;;;;;4972297;28;20411;-68
2021/10/26 01:20:56;;;;;;;2.50;1.80;;;22.70;42.10;;;;;;4972295;28;20396;-69
2021/10/26 01:23:22;;;;;;;2.70;1.70;;;22.70;42.10;;;;;;4972311;28;20432;-69
2021/10/26 01:25:48;;;;;;;2.40;1.70;;;22.70;42.10;;;;;;4972283;28;20395;-69
2021/10/26 01:28:15;;;;;;;2.97;1.90;;;22.70;42.10;;;;;;4954240;28;20416;-69
2021/10/26 01:30:41;;;;;;;2.30;1.70;;;22.80;42.10;;;;;;4972283;28;20399;-69
2021/10/26 01:33:08;;;;;;;2.33;1.73;;;22.70;42.00;;;;;;4972196;28;20396;-69
2021/10/26 01:35:34;;;;;;;2.65;1.80;;;22.80;42.10;;;;;;4972157;28;20385;-69
2021/10/26 01:38:01;;;;;;;2.47;1.75;;;22.70;42.60;;;;;;4971698;28;20404;-69
2021/10/26 01:40:28;;;;;;;2.40;1.70;;;22.80;42.10;;;;;;4971894;28;20407;-69
2021/10/26 01:42:54;;;;;;;2.20;1.87;;;22.70;42.00;;;;;;4971708;28;20427;-69
2021/10/26 01:45:19;;;;;;;2.40;1.80;;;22.70;42.00;;;;;;4954370;28;20395;-69
2021/10/26 01:47:45;;;;;;;2.38;1.70;;;22.70;42.00;;;;;;4972002;28;20420;-69
2021/10/26 01:50:16;;;;;;;2.38;1.50;;;22.70;42.00;;;;;;4971517;28;20424;-69
2021/10/26 01:52:43;;;;;;;2.40;1.52;;;22.70;42.00;;;;;;4970552;28;20408;-69
2021/10/26 01:55:10;;;;;;;2.28;1.65;;;22.70;42.00;;;;;;4975598;28;20393;-69
2021/10/26 01:57:36;;;;;;;3.10;1.85;;;22.70;42.00;;;;;;4975259;28;20404;-69
2021/10/26 02:00:08;;;;;;;2.08;1.60;;;22.70;41.90;;;;;;4975166;28;20396;-69
2021/10/26 02:02:34;;;;;;;2.37;1.83;;;22.70;42.00;;;;;;4975262;28;20495;-69
2021/10/26 02:05:00;;;;;;;2.30;1.58;;;22.70;41.90;;;;;;4975418;28;20884;-69
2021/10/26 02:07:26;;;;;;;2.17;1.50;;;22.70;41.90;;;;;;4975243;28;20399;-69
2021/10/26 02:09:52;;;;;;;2.00;1.65;;;22.70;42.00;;;;;;4975101;28;20447;-69
2021/10/26 02:12:17;;;;;;;2.33;1.70;;;22.70;41.90;;;;;;4974550;28;20392;-69
2021/10/26 02:14:43;;;;;;;1.98;1.60;;;22.70;42.60;;;;;;4974551;28;20428;-69
2021/10/26 02:17:09;;;;;;;2.20;1.60;;;22.70;42.00;;;;;;4957756;28;20842;-69
2021/10/26 02:19:35;;;;;;;1.90;1.47;;;22.70;41.90;;;;;;4974973;28;20473;-69
2021/10/26 02:22:01;;;;;;;2.15;1.65;;;22.70;42.00;;;;;;4974704;28;20972;-69
2021/10/26 02:24:27;;;;;;;2.20;1.60;;;22.70;41.90;;;;;;4957389;28;20405;-69
2021/10/26 02:26:52;;;;;;;2.20;1.53;;;22.60;41.90;;;;;;4957596;28;20470;-69
2021/10/26 02:29:18;;;;;;;2.50;1.52;;;22.60;41.90;;;;;;4974617;28;20391;-69
2021/10/26 02:31:44;;;;;;;2.50;1.70;;;22.60;41.90;;;;;;4974563;28;20837;-69
2021/10/26 02:34:10;;;;;;;2.08;1.50;;;22.60;41.90;;;;;;4957080;28;20454;-69
2021/10/26 02:36:36;;;;;;;1.90;1.50;;;22.60;41.90;;;;;;4974702;28;20892;-69
2021/10/26 02:39:04;;;;;;;2.57;1.53;;;22.60;41.90;;;;;;4957485;28;20436;-69
2021/10/26 02:41:29;;;;;;;2.00;1.50;;;22.60;41.80;;;;;;4974237;28;20411;-69
2021/10/26 02:43:55;;;;;;;1.77;1.50;;;22.60;41.80;;;;;;4974539;28;20396;-69
2021/10/26 02:46:21;;;;;;;2.73;1.43;;;22.60;41.80;;;;;;4956595;28;20942;-69
2021/10/26 02:48:48;;;;;;;2.00;1.50;;;22.60;41.80;;;;;;4974571;28;20915;-70
2021/10/26 02:51:15;;;;;;;1.83;1.20;;;22.60;41.70;;;;;;4974562;28;20809;-69
2021/10/26 02:53:40;;;;;;;2.83;1.42;;;22.60;41.70;;;;;;4957087;28;20403;-69
2021/10/26 02:56:06;;;;;;;2.10;1.60;;;22.60;41.70;;;;;;4974219;28;20396;-69
2021/10/26 02:58:32;;;;;;;2.00;1.50;;;22.60;41.70;;;;;;4974002;28;20391;-69
2021/10/26 03:00:58;;;;;;;1.97;1.37;;;22.60;41.70;;;;;;4974312;28;20476;-69
2021/10/26 03:03:23;;;;;;;1.85;1.38;;;22.60;41.70;;;;;;4973068;28;20411;-69
2021/10/26 03:05:49;;;;;;;2.83;1.33;;;22.60;41.70;;;;;;4974213;28;20399;-69
2021/10/26 03:08:15;;;;;;;3.80;1.80;;;22.60;41.40;;;;;;4956398;28;20411;-70
2021/10/26 03:10:41;;;;;;;2.50;1.70;;;22.70;41.80;;;;;;4956813;28;20411;-69
2021/10/26 03:13:07;;;;;;;3.03;1.40;;;22.70;41.40;;;;;;4956690;28;20408;-70
2021/10/26 03:15:33;;;;;;;2.97;1.80;;;22.80;42.00;;;;;;4955922;28;20404;-69
2021/10/26 03:17:58;;;;;;;7.78;1.85;;;22.80;42.30;;;;;;4973829;28;21105;-69
2021/10/26 03:20:24;;;;;;;5.87;1.93;;;22.80;44.00;;;;;;4955546;28;20407;-69
2021/10/26 03:22:50;;;;;;;4.10;1.90;;;22.90;43.40;;;;;;4973120;28;20427;-69
2021/10/26 03:25:16;;;;;;;5.07;1.70;;;22.90;43.30;;;;;;4973506;28;20392;-68
2021/10/26 03:27:42;;;;;;;5.43;1.80;;;22.90;43.20;;;;;;4956305;28;20409;-68
2021/10/26 03:30:09;;;;;;;7.78;1.55;;;22.90;43.10;;;;;;4955842;28;20934;-68
2021/10/26 03:32:35;;;;;;;5.00;1.50;;;22.90;43.10;;;;;;4973295;28;20397;-69
2021/10/26 03:35:01;;;;;;;4.93;1.60;;;22.90;43.00;;;;;;4956252;28;20423;-69
2021/10/26 03:37:27;;;;;;;4.75;1.65;;;22.90;42.40;;;;;;4973126;28;20396;-69
2021/10/26 03:39:56;;;;;;;4.97;1.70;;;22.90;42.80;;;;;;4955736;28;20463;-69
2021/10/26 03:42:26;;;;;;;4.60;1.67;;;22.90;42.70;;;;;;4955455;28;20844;-68
2021/10/26 03:44:52;;;;;;;2.90;1.38;;;23.00;42.50;;;;;;4955854;28;20490;-68
2021/10/26 03:47:19;;;;;;;6.25;1.60;;;23.00;42.90;;;;;;4973091;28;20419;-68
2021/10/26 03:49:45;;;;;;;3.10;1.50;;;23.00;42.40;;;;;;4956067;28;20384;-68
2021/10/26 03:52:11;;;;;;;3.30;1.60;;;23.00;42.40;;;;;;4973065;28;20426;-68
2021/10/26 03:54:38;;;;;;;4.78;1.60;;;23.00;42.20;;;;;;4973235;28;20483;-68
2021/10/26 03:57:08;;;;;;;5.68;1.58;;;23.00;42.20;;;;;;4973195;28;20400;-68
2021/10/26 03:59:35;;;;;;;3.30;1.67;;;23.00;42.50;;;;;;4973249;28;20809;-69
2021/10/26 04:02:06;;;;;;;3.63;1.50;;;23.00;42.20;;;;;;4973166;28;20428;-68
2021/10/26 04:04:31;;;;;;;4.78;1.63;;;22.90;41.70;;;;;;4972954;28;20454;-69
2021/10/26 04:06:57;;;;;;;4.38;1.58;;;22.90;42.00;;;;;;4973059;28;20892;-69
2021/10/26 04:09:31;;;;;;;5.05;1.55;;;22.80;41.50;;;;;;4955739;28;20422;-69
2021/10/26 04:12:42;;;;;;;5.45;1.60;;;22.70;41.60;;;;;;4973002;28;20479;-69
2021/10/26 04:14:43;;;;;;;3.40;1.50;;;22.60;42.10;;;;;;4958748;28;20463;-69
2021/10/26 04:17:09;;;;;;;3.60;1.48;;;22.50;41.60;;;;;;4955622;28;20495;-69
2021/10/26 04:19:35;;;;;;;7.13;1.77;;;22.50;41.80;;;;;;4972921;28;20479;-69
2021/10/26 04:22:01;;;;;;;5.63;1.60;;;22.50;42.50;;;;;;4972828;28;20515;-69
2021/10/26 04:24:27;;;;;;;7.50;1.70;;;22.60;42.80;;;;;;4955203;28;20427;-71
2021/10/26 04:26:53;;;;;;;8.63;1.70;;;22.70;42.80;;;;;;4972917;28;20447;-69
2021/10/26 04:29:18;;;;;;;6.93;1.80;;;22.70;42.30;;;;;;4955323;28;20424;-69
2021/10/26 04:31:44;;;;;;;6.03;1.70;;;22.70;42.80;;;;;;4967046;28;20394;-70
2021/10/26 04:34:10;;;;;;;6.70;1.60;;;22.70;42.50;;;;;;4972621;28;20397;-69
2021/10/26 04:36:36;;;;;;;5.55;1.50;;;22.80;43.00;;;;;;4971264;28;20400;-70
2021/10/26 04:39:03;;;;;;;6.70;1.60;;;22.80;42.70;;;;;;4972745;28;20392;-70
2021/10/26 04:41:28;;;;;;;6.70;2.00;;;22.80;43.00;;;;;;4972633;28;20455;-69
2021/10/26 04:43:55;;;;;;;5.65;1.75;;;22.90;43.30;;;;;;4971511;28;20427;-69
2021/10/26 04:46:21;;;;;;;5.35;1.70;;;22.90;43.30;;;;;;4971947;28;20423;-69
2021/10/26 04:48:46;;;;;;;5.00;1.50;;;22.90;43.40;;;;;;4955278;28;20384;-69
2021/10/26 04:51:12;;;;;;;6.00;1.48;;;22.90;43.40;;;;;;4955215;28;20400;-69
2021/10/26 04:53:38;;;;;;;6.57;1.70;;;22.90;43.30;;;;;;4972565;28;20392;-69
2021/10/26 04:56:04;;;;;;;7.90;1.67;;;22.90;42.70;;;;;;4972565;28;20880;-69
2021/10/26 04:58:30;;;;;;;8.38;1.60;;;22.90;42.80;;;;;;4971843;28;20400;-68
2021/10/26 05:00:55;;;;;;;9.40;1.77;;;22.90;42.70;;;;;;4972174;28;20407;-67
2021/10/26 05:03:21;;;;;;;6.00;1.30;;;23.00;43.30;;;;;;4972104;28;20408;-67
2021/10/26 05:05:47;;;;;;;7.82;1.60;;;23.00;42.90;;;;;;4972424;28;20403;-69
2021/10/26 05:08:13;;;;;;;9.87;1.90;;;23.00;43.20;;;;;;4972051;28;20468;-67
2021/10/26 05:10:41;;;;;;;5.32;1.67;;;23.00;43.00;;;;;;4972137;28;20399;-70
2021/10/26 05:13:08;;;;;;;6.18;1.40;;;23.00;42.60;;;;;;4955097;28;20471;-69
2021/10/26 05:15:34;;;;;;;6.83;1.53;;;23.00;42.60;;;;;;4972306;28;20513;-69
2021/10/26 05:18:00;;;;;;;5.25;1.50;;;22.90;42.30;;;;;;4972530;28;20428;-67
2021/10/26 05:20:27;;;;;;;7.05;1.42;;;23.00;42.20;;;;;;4971648;28;20400;-68
2021/10/26 05:22:55;;;;;;;5.77;1.70;;;23.00;42.40;;;;;;4971393;28;20481;-69
2021/10/26 05:25:21;;;;;;;5.07;1.70;;;22.90;42.80;;;;;;4972067;28;20403;-68
2021/10/26 05:27:46;;;;;;;6.17;1.50;;;22.90;42.30;;;;;;4975747;28;20400;-67
2021/10/26 05:30:13;;;;;;;7.00;2.00;;;22.90;42.20;;;;;;4975769;28;20396;-67
2021/10/26 05:32:40;;;;;;;6.63;1.58;;;22.90;42.30;;;;;;4958343;28;20408;-67
2021/10/26 05:35:06;;;;;;;9.32;1.67;;;22.90;42.30;;;;;;4975940;28;20869;-67
2021/10/26 05:37:32;;;;;;;5.78;1.60;;;22.90;42.20;;;;;;4975726;28;20475;-67
2021/10/26 05:39:57;;;;;;;7.88;1.58;;;22.80;42.20;;;;;;4975838;28;20479;-67
2021/10/26 05:42:23;;;;;;;5.13;1.50;;;22.80;42.20;;;;;;4975202;28;20471;-67
2021/10/26 05:44:49;;;;;;;6.25;1.60;;;22.80;42.10;;;;;;4975292;28;20392;-67
2021/10/26 05:47:14;;;;;;;4.17;1.40;;;22.80;42.10;;;;;;4975479;28;20446;-67
2021/10/26 05:49:40;;;;;;;4.00;1.48;;;22.80;42.00;;;;;;4975648;28;20400;-67
2021/10/26 05:52:06;;;;;;;4.90;1.50;;;22.80;42.00;;;;;;4975576;28;20396;-67
2021/10/26 05:54:32;;;;;;;4.97;1.50;;;22.80;42.00;;;;;;4973764;28;20420;-67
2021/10/26 05:56:57;;;;;;;4.33;1.57;;;22.80;41.90;;;;;;4975500;28;20407;-67
2021/10/26 05:59:23;;;;;;;4.18;1.52;;;22.80;41.80;;;;;;4975385;28;20435;-67
2021/10/26 06:01:49;;;;;;;4.03;1.50;;;22.80;41.80;;;;;;4975423;28;20428;-67
2021/10/26 06:04:15;;;;;;;4.22;1.73;;;22.80;41.70;;;;;;4975118;28;20392;-67
2021/10/26 06:06:41;;;;;;;3.17;2.00;;;22.70;41.70;;;;;;4975177;28;20857;-67
2021/10/26 06:09:07;;;;;;;3.90;1.80;;;22.70;41.70;;;;;;4974098;28;20753;-67
2021/10/26 06:11:33;;;;;;;4.00;1.83;;;22.70;41.70;;;;;;4974988;28;20499;-67
2021/10/26 06:14:01;;;;;;;2.72;1.80;;;22.70;41.60;;;;;;4975463;28;20854;-67
2021/10/26 06:16:28;;;;;;;3.13;1.80;;;22.70;41.60;;;;;;4974598;28;20396;-67
2021/10/26 06:18:54;;;;;;;3.50;2.00;;;22.70;41.60;;;;;;4975215;28;20408;-67
2021/10/26 06:21:20;;;;;;;2.42;1.73;;;22.70;41.60;;;;;;4974954;28;20417;-67
2021/10/26 06:23:45;;;;;;;2.80;1.80;;;22.70;41.60;;;;;;4975088;28;20412;-67
2021/10/26 06:26:11;;;;;;;3.22;2.03;;;22.70;41.50;;;;;;4957717;28;20400;-67
2021/10/26 06:28:37;;;;;;;4.10;1.93;;;22.70;41.50;;;;;;4974665;28;20410;-67
2021/10/26 06:31:03;;;;;;;3.17;1.90;;;22.70;41.40;;;;;;4957596;28;20479;-67
2021/10/26 06:33:29;;;;;;;3.08;1.80;;;22.70;41.50;;;;;;4957347;28;20440;-67
2021/10/26 06:35:55;;;;;;;3.33;1.80;;;22.70;41.40;;;;;;4974765;28;20443;-67
2021/10/26 06:38:21;;;;;;;2.70;1.55;;;22.70;41.40;;;;;;4974040;28;20405;-67
2021/10/26 06:40:47;;;;;;;3.83;1.95;;;22.70;41.40;;;;;;4974789;28;20393;-67
2021/10/26 06:43:13;;;;;;;3.17;1.80;;;22.70;41.30;;;;;;4974555;28;20572;-67
2021/10/26 06:45:39;;;;;;;3.30;1.88;;;22.60;41.30;;;;;;4957072;28;20872;-67
2021/10/26 06:48:06;;;;;;;2.60;1.80;;;22.70;41.30;;;;;;4974650;28;20444;-67
2021/10/26 06:50:32;;;;;;;2.65;1.70;;;22.60;41.40;;;;;;4974066;28;20389;-67
2021/10/26 06:52:58;;;;;;;2.80;1.90;;;22.60;41.40;;;;;;4957176;28;20451;-67
2021/10/26 06:55:24;;;;;;;2.70;1.60;;;22.70;41.40;;;;;;4974447;28;20420;-67
2021/10/26 06:57:50;;;;;;;2.60;1.80;;;22.70;41.40;;;;;;4973208;28;20400;-67
2021/10/26 07:00:17;;;;;;;2.15;1.52;;;22.60;41.30;;;;;;4974172;28;20398;-67
2021/10/26 07:02:51;;;;;;;2.65;1.70;;;22.70;41.40;;;;;;4956710;28;20431;-67
2021/10/26 07:05:18;;;;;;;3.45;1.83;;;22.70;41.40;;;;;;4974289;28;20498;-67
2021/10/26 07:07:45;;;;;;;2.80;1.73;;;22.70;41.30;;;;;;4974287;28;20454;-67
2021/10/26 07:10:10;;;;;;;2.80;1.63;;;22.60;41.20;;;;;;4974308;28;20424;-67
2021/10/26 07:12:36;;;;;;;2.70;1.70;;;22.70;41.30;;;;;;4973681;28;20491;-67
2021/10/26 07:15:06;;;;;;;2.50;1.70;;;22.70;41.20;;;;;;4974203;28;20392;-67
2021/10/26 07:17:33;;;;;;;2.40;1.75;;;22.60;41.10;;;;;;4956756;28;20401;-67
2021/10/26 07:19:59;;;;;;;2.55;1.50;;;22.60;41.20;;;;;;4972763;28;20416;-67
2021/10/26 07:22:25;;;;;;;3.30;1.40;;;22.60;41.30;;;;;;4955602;28;20430;-67
2021/10/26 07:24:56;;;;;;;2.67;1.80;;;22.60;41.20;;;;;;4973494;28;20401;-67
2021/10/26 07:27:23;;;;;;;2.50;1.67;;;22.60;41.20;;;;;;4973878;28;20885;-67
2021/10/26 07:29:49;;;;;;;2.80;1.50;;;22.70;41.20;;;;;;4973890;28;20436;-67
2021/10/26 07:32:15;;;;;;;2.30;1.43;;;22.70;41.20;;;;;;4972548;28;20914;-67
2021/10/26 07:34:41;;;;;;;2.50;1.70;;;22.60;41.10;;;;;;4973338;28;20400;-67
2021/10/26 07:37:07;;;;;;;1.85;1.33;;;22.60;41.20;;;;;;4973808;28;20403;-67
2021/10/26 07:39:35;;;;;;;2.30;1.60;;;22.60;41.20;;;;;;4956348;28;20404;-67
2021/10/26 07:42:01;;;;;;;2.83;1.50;;;22.70;41.30;;;;;;4973474;28;20428;-67
2021/10/26 07:44:32;;;;;;;2.53;1.55;;;22.60;41.20;;;;;;4973095;28;20496;-67
2021/10/26 07:47:00;;;;;;;2.50;1.60;;;22.70;41.30;;;;;;4955991;28;20499;-67
2021/10/26 07:49:28;;;;;;;1.90;1.50;;;22.60;41.30;;;;;;4972869;28;20396;-67
2021/10/26 07:51:54;;;;;;;2.33;1.48;;;22.60;41.20;;;;;;4973537;28;20436;-67
2021/10/26 07:54:20;;;;;;;2.03;1.10;;;22.60;41.20;;;;;;4973065;28;20428;-67
2021/10/26 07:56:46;;;;;;;2.30;1.60;;;22.60;41.20;;;;;;4973174;28;20411;-67
2021/10/26 07:59:11;;;;;;;2.20;1.50;;;22.60;41.20;;;;;;4956083;28;20458;-67
2021/10/26 08:01:37;;;;;;;1.85;1.30;;;22.60;41.20;;;;;;4973165;28;20410;-67
2021/10/26 08:04:05;;;;;;;2.50;1.30;;;22.60;41.20;;;;;;4973284;28;20392;-67
2021/10/26 08:06:31;;;;;;;2.22;1.27;;;22.60;41.10;;;;;;4955369;28;20424;-67
2021/10/26 08:08:56;;;;;;;1.80;1.30;;;22.60;41.10;;;;;;4973192;28;20463;-67
2021/10/26 08:11:24;;;;;;;2.03;1.35;;;22.60;41.10;;;;;;4955804;28;20727;-67
2021/10/26 08:13:50;;;;;;;1.85;1.33;;;22.60;41.10;;;;;;4973018;28;20428;-67
2021/10/26 08:16:16;;;;;;;2.00;1.30;;;22.60;41.10;;;;;;4972918;28;20503;-67
2021/10/26 08:18:44;;;;;;;1.48;1.10;;;22.60;41.00;;;;;;4972550;28;20392;-67
2021/10/26 08:21:12;;;;;;;1.70;1.20;;;22.70;41.00;;;;;;4972848;28;20396;-67
2021/10/26 08:23:40;;;;;;;1.77;1.20;;;22.60;41.00;;;;;;4955638;28;20415;-67
2021/10/26 08:26:11;;;;;;;1.60;1.20;;;22.70;41.00;;;;;;4972952;28;20384;-67
2021/10/26 08:28:36;;;;;;;1.55;1.20;;;22.70;40.90;;;;;;4972537;28;20408;-67
2021/10/26 08:31:19;;;;;;;1.70;1.20;;;22.70;40.90;;;;;;4972894;28;20746;-67
2021/10/26 08:36:30;;;;;;;2.20;1.30;;;22.70;40.80;;;;;;4972507;28;20418;-67
2021/10/26 08:38:55;;;;;;;1.73;1.13;;;22.70;40.90;;;;;;4972287;28;20400;-67
2021/10/26 08:41:23;;;;;;;1.98;1.17;;;22.70;40.90;;;;;;4972154;28;20416;-67
2021/10/26 08:43:50;;;;;;;1.33;0.93;;;22.70;40.80;;;;;;4972679;28;20809;-67
2021/10/26 08:46:17;;;;;;;1.90;1.20;;;22.70;40.90;;;;;;4972489;28;20784;-67
2021/10/26 08:48:46;;;;;;;1.50;1.00;;;22.70;40.80;;;;;;4972317;28;20391;-67
2021/10/26 08:51:11;;;;;;;1.63;1.20;;;22.70;40.80;;;;;;4955163;28;20903;-67
2021/10/26 08:53:38;;;;;;;2.17;1.37;;;22.70;40.80;;;;;;4971410;28;20396;-67
2021/10/26 08:56:04;;;;;;;1.60;1.10;;;22.70;40.80;;;;;;4972651;28;20451;-67
2021/10/26 08:58:33;;;;;;;1.80;1.20;;;22.70;40.70;;;;;;4972183;28;20411;-68
2021/10/26 09:01:04;;;;;;;1.65;1.20;;;22.70;40.80;;;;;;4974869;28;20864;-66
2021/10/26 09:03:34;;;;;;;1.90;1.20;;;22.70;40.80;;;;;;4959112;28;20773;-67
2021/10/26 09:06:00;;;;;;;1.58;1.10;;;22.70;40.80;;;;;;4976557;28;20467;-67
2021/10/26 09:08:27;;;;;;;1.60;1.20;;;22.70;40.80;;;;;;4958741;28;20459;-67
2021/10/26 09:10:57;;;;;;;1.48;1.00;;;22.70;40.80;;;;;;4976378;28;20943;-67
2021/10/26 09:16:50;;;;;;;1.50;1.10;;;22.90;40.80;;;;;;4976345;28;20383;-67
2021/10/26 09:19:18;;;;;;;2.00;1.13;;;22.90;40.60;;;;;;4976299;28;20416;-67
2021/10/26 09:21:45;;;;;;;1.70;1.02;;;23.00;40.50;;;;;;4958733;28;20462;-67
2021/10/26 09:24:15;;;;;;;1.63;1.08;;;22.90;40.50;;;;;;4976011;28;20408;-67
2021/10/26 09:27:00;;;;;;;1.73;1.10;;;22.90;40.50;;;;;;4975685;28;20729;-67
2021/10/26 09:29:35;;;;;;;1.63;1.20;;;22.90;40.40;;;;;;4976110;28;20400;-67
2021/10/26 09:32:09;;;;;;;1.73;1.07;;;22.90;40.40;;;;;;4974830;28;20407;-67
2021/10/26 09:34:48;;;;;;;1.60;0.93;;;23.00;40.50;;;;;;4975388;28;20403;-67
2021/10/26 09:37:16;;;;;;;1.27;0.90;;;23.00;40.50;;;;;;4974629;28;20403;-67
2021/10/26 09:39:59;;;;;;;2.00;1.20;;;23.00;40.40;;;;;;4975617;28;20939;-67
2021/10/26 09:42:26;;;;;;;1.50;1.10;;;23.00;40.40;;;;;;4975435;28;20424;-67
2021/10/26 09:45:02;;;;;;;1.33;0.90;;;23.00;40.40;;;;;;4975612;28;20487;-67
2021/10/26 09:47:33;;;;;;;1.80;1.10;;;23.00;40.40;;;;;;4975579;28;20831;-66
2021/10/26 09:50:03;;;;;;;1.58;1.00;;;23.00;40.50;;;;;;4958426;28;20491;-67
2021/10/26 09:52:33;;;;;;;1.20;0.85;;;23.00;40.50;;;;;;4975346;28;20396;-67
2021/10/26 09:55:03;;;;;;;1.38;0.93;;;23.00;40.50;;;;;;4957787;28;20392;-67
2021/10/26 09:57:37;;;;;;;2.00;1.10;;;23.00;40.60;;;;;;4975097;28;20424;-67
2021/10/26 10:00:07;;;;;;;1.50;0.90;;;22.90;40.50;;;;;;4975317;28;20397;-67
2021/10/26 10:02:33;;;;;;;1.83;1.10;;;23.00;40.50;;;;;;4974741;28;20511;-67
2021/10/26 10:05:00;;;;;;;1.55;1.00;;;22.90;40.50;;;;;;4975476;28;20876;-67
2021/10/26 10:07:30;;;;;;;1.65;1.10;;;22.90;40.50;;;;;;4975335;28;20884;-67
2021/10/26 10:10:01;;;;;;;2.40;1.00;;;22.90;40.60;;;;;;4975170;28;20391;-68
2021/10/26 10:12:27;;;;;;;1.67;1.00;;;23.00;40.60;;;;;;4974417;28;20403;-67
2021/10/26 10:14:54;;;;;;;1.30;0.90;;;22.90;40.50;;;;;;4975047;28;20384;-67
2021/10/26 10:17:27;;;;;;;2.40;1.00;;;23.00;40.50;;;;;;4975221;28;20760;-66
2021/10/26 10:19:54;;;;;;;1.50;1.05;;;23.00;40.50;;;;;;4975261;28;20392;-67
2021/10/26 10:22:25;;;;;;;1.40;0.90;;;23.00;40.40;;;;;;4975070;28;20514;-67
2021/10/26 10:24:55;;;;;;;1.30;0.90;;;23.00;40.40;;;;;;4974903;28;20398;-67
2021/10/26 10:27:22;;;;;;;1.83;1.00;;;23.10;40.40;;;;;;4975101;28;20539;-67
2021/10/26 10:29:49;;;;;;;1.85;0.90;;;23.00;40.30;;;;;;4974993;28;20471;-67
2021/10/26 10:32:15;;;;;;;1.55;1.00;;;23.10;40.40;;;;;;4974916;28;20403;-67
2021/10/26 10:34:44;;;;;;;1.90;0.93;;;23.10;40.40;;;;;;4974397;28;20395;-67
2021/10/26 10:37:11;;;;;;;1.50;1.00;;;23.00;40.30;;;;;;4957405;28;20487;-67
2021/10/26 10:39:37;;;;;;;1.65;1.08;;;23.00;40.30;;;;;;4973265;28;20398;-67
2021/10/26 10:42:10;;;;;;;1.50;0.88;;;23.10;40.40;;;;;;4974737;28;20412;-66
2021/10/26 10:44:38;;;;;;;1.30;0.80;;;23.10;40.30;;;;;;4974284;28;20392;-66
2021/10/26 10:47:04;;;;;;;1.55;1.05;;;23.10;40.30;;;;;;4974607;28;20499;-67
2021/10/26 10:49:47;;;;;;;1.80;1.10;;;23.10;40.40;;;;;;4974576;28;20400;-67
2021/10/26 10:52:18;;;;;;;1.60;1.10;;;23.10;40.30;;;;;;4974646;28;20392;-67
2021/10/26 10:54:56;;;;;;;2.38;1.17;;;23.10;40.40;;;;;;4974156;28;20410;-67
2021/10/26 10:57:36;;;;;;;1.80;1.00;;;23.10;40.40;;;;;;4974460;28;20395;-67
2021/10/26 11:00:18;;;;;;;2.10;1.20;;;23.10;40.30;;;;;;4974522;28;20403;-67
2021/10/26 11:02:48;;;;;;;1.70;0.93;;;23.10;40.40;;;;;;4973886;28;20424;-66
2021/10/26 11:05:36;;;;;;;1.55;1.00;;;23.10;40.40;;;;;;4956983;28;20411;-66
2021/10/26 11:08:12;;;;;;;1.60;1.10;;;23.10;40.30;;;;;;4973005;28;20400;-66
2021/10/26 11:10:50;;;;;;;1.95;1.00;;;23.10;40.40;;;;;;4973398;28;20380;-66
2021/10/26 11:13:18;;;;;;;1.60;1.00;;;23.10;40.50;;;;;;4973662;28;20399;-67
2021/10/26 11:15:45;;;;;;;1.80;1.02;;;23.10;40.40;;;;;;4974131;28;20399;-66
2021/10/26 11:18:34;;;;;;;1.85;1.00;;;23.10;40.50;;;;;;4974062;28;20396;-66
2021/10/26 11:21:05;;;;;;;1.70;1.00;;;23.10;40.50;;;;;;4956360;28;20393;-67
2021/10/26 11:23:43;;;;;;;1.90;1.10;;;23.10;40.40;;;;;;4955499;28;20427;-67
2021/10/26 11:26:18;;;;;;;1.60;1.10;;;23.20;40.40;;;;;;4972694;28;20491;-67
2021/10/26 11:28:52;;;;;;;2.00;1.13;;;23.10;40.40;;;;;;4973444;28;20400;-66
2021/10/26 11:31:23;;;;;;;2.10;1.10;;;23.20;40.50;;;;;;4973819;28;20491;-67
2021/10/26 11:33:58;;;;;;;1.80;1.30;;;23.20;40.50;;;;;;4973842;28;20407;-67
2021/10/26 11:36:31;;;;;;;3.50;2.42;;;23.20;40.40;;;;;;4973654;28;20722;-66
2021/10/26 11:38:58;;;;;;;6.25;3.72;;;23.20;40.50;;;;;;4973229;28;20780;-67
2021/10/26 11:41:27;;;;;;;5.88;4.80;;;23.20;40.30;;;;;;4973511;28;20455;-67
2021/10/26 11:43:56;;;;;;;6.40;5.25;;;23.10;40.10;;;;;;4973603;28;20458;-67
2021/10/26 11:46:25;;;;;;;8.20;5.72;;;23.10;40.10;;;;;;4973446;28;20412;-67
2021/10/26 11:48:55;;;;;;;7.75;5.45;;;23.10;40.00;;;;;;4973072;28;20463;-67
2021/10/26 11:51:40;;;;;;;8.40;5.40;;;23.10;40.40;;;;;;4973428;28;20927;-67
2021/10/26 11:54:18;;;;;;;7.27;3.50;;;23.10;40.00;;;;;;4955854;28;20436;-66
2021/10/26 11:56:50;;;;;;;7.22;3.38;;;23.50;42.90;;;;;;4955624;28;20889;-66
2021/10/26 11:59:21;;;;;;;7.53;3.10;;;23.80;41.60;;;;;;4973252;28;20411;-66
2021/10/26 12:01:50;;;;;;;6.85;2.85;;;24.00;41.40;;;;;;4965329;28;20430;-67
2021/10/26 12:04:29;;;;;;;6.87;2.80;;;24.30;41.20;;;;;;4982905;28;20398;-66
2021/10/26 12:07:02;;;;;;;6.43;2.40;;;24.40;41.00;;;;;;4977851;28;21200;-69
2021/10/26 12:09:33;;;;;;;6.65;2.17;;;24.50;40.70;;;;;;4979020;28;20402;-69
2021/10/26 12:12:04;;;;;;;4.95;2.20;;;24.60;40.80;;;;;;4980230;28;20939;-69
2021/10/26 12:14:32;;;;;;;4.53;2.30;;;24.70;40.60;;;;;;4979121;28;20410;-69
2021/10/26 12:17:13;;;;;;;4.75;2.10;;;24.80;40.50;;;;;;4962757;28;20429;-70
2021/10/26 12:19:49;;;;;;;5.00;1.90;;;24.90;40.40;;;;;;4978406;28;20423;-68
2021/10/26 12:22:18;;;;;;;5.28;1.98;;;24.90;40.20;;;;;;4977309;28;20424;-67
2021/10/26 12:24:53;;;;;;;8.48;1.95;;;25.00;40.40;;;;;;4979268;28;20398;-68
2021/10/26 12:27:34;;;;;;;4.70;2.05;;;25.10;40.30;;;;;;4978186;28;20832;-68
2021/10/26 12:30:11;;;;;;;4.05;1.90;;;25.10;40.30;;;;;;4978406;28;20790;-67
2021/10/26 12:32:41;;;;;;;4.80;2.20;;;25.20;40.20;;;;;;4977701;28;20407;-68
2021/10/26 12:35:10;;;;;;;4.43;2.03;;;25.20;40.20;;;;;;4978692;28;21790;-68
2021/10/26 12:37:36;;;;;;;6.35;2.03;;;25.30;40.20;;;;;;4963379;28;20420;-68
2021/10/26 12:40:19;;;;;;;4.57;1.90;;;25.40;40.10;;;;;;4962890;28;20408;-67
2021/10/26 12:43:06;;;;;;;4.72;2.05;;;25.40;40.10;;;;;;4961448;28;20435;-68
2021/10/26 12:45:41;;;;;;;6.47;1.90;;;25.30;40.20;;;;;;4980049;28;20479;-69
2021/10/26 12:48:09;;;;;;;11.77;2.20;;;25.30;40.30;;;;;;4980505;28;20413;-68
2021/10/26 12:50:51;;;;;;;6.80;2.00;;;25.20;40.10;;;;;;4961678;28;20840;-68
2021/10/26 12:53:33;;;;;;;6.57;1.90;;;25.20;40.20;;;;;;4961751;28;20966;-69
2021/10/26 12:56:00;;;;;;;8.07;1.83;;;25.20;39.90;;;;;;4978325;28;20411;-69
2021/10/26 12:58:43;;;;;;;7.20;2.10;;;25.10;39.80;;;;;;4961571;28;20408;-69